Rocky Mountain Metropolitan Airport
KBJC : now visible

Airfield :











YOU CAN JOIN US ON...

 
LOGIN :

Register | Disclaimer

   EN    FR    IT 

 









Legend :    VFR   Marginal VFR   IFR   Intensive IFR   Very Intensive IFR
Visi :
Ceiling :
>= 8 km
>= 3000ft
5 to 8 km
1000 to 3000 ft
1500m to 5 km
500 to 1000 ft
800 to 1500m
200 to 500 ft
< 800m
< 200 ft
Symbols :   Thunderstorms  Fog  Heavy snow  Heavy precipitations  Wind > 20 kt






- Airport Elevation : 5673 ft


KBJC - Rocky Mountain Metropolitan

CURRENT METAR :
  • 161148Z AUTO 35009KT 10SM SCT035 OVC110 M05/M07 A3001 RMK AO2

EXPIRED METARs :
  • 161130Z AUTO 34008KT 10SM SCT020 OVC120 M05/M07 A3001 RMK AO2
  • 161112Z AUTO 35008KT 10SM SCT020 BKN095 OVC120 M05/M07 A3000 RMK AO2
  • 161048Z AUTO 36005KT 10SM BKN060 BKN070 OVC085 M05/M07 A3000 RMK AO2
  • 161030Z AUTO 36005KT 10SM OVC060 M04/M06 A3000 RMK AO2
  • 161012Z AUTO 36003KT 10SM OVC060 M04/M06 A2999 RMK AO2
  • 160948Z AUTO 33003KT 10SM OVC060 M04/M06 A2999 RMK AO2
  • 160930Z AUTO 33005KT 10SM OVC060 M04/M06 A2998 RMK AO2

TAF KBJC
Valid from the 16 at 12:00 until the 17 at 12:00 UTC


161128Z 1612/1712 35005KT P6SM SCT030 BKN090
FM161500 VRB05KT P6SM SCT050 BKN090
FM162000 35010KT P6SM SCT080 SCT120
FM170200 27008KT P6SM FEW180



MET'MAP, your aeronautical weather chart ! - Copyright ORBIFLY December 2007 - Disclaimer

ORBIFLY MET'MAP TEAM :

Programming & Development : Alexandra Zaïnal
Concept & original design : Baudouin d'Aumeries
Assistance for programming : Marc-Olivier Méhu
Technical & hardware support : Manuel Goepfert

Contact : metmap@orbifly.com




SOURCES & CREDITS :

   NOAA       Earth
Advisory